sensor_id;sensor_type;location;lat;lon;timestamp;pressure;altitude;pressure_sealevel;temperature;humidity
54262;BME280;40174;52.364;6.452;2023-02-28T00:02:25;102913.00;;;0.75;100.00
54262;BME280;40174;52.364;6.452;2023-02-28T00:04:52;102912.16;;;0.74;100.00
54262;BME280;40174;52.364;6.452;2023-02-28T00:07:26;102906.91;;;0.77;100.00
54262;BME280;40174;52.364;6.452;2023-02-28T00:09:53;102912.13;;;0.77;100.00
54262;BME280;40174;52.364;6.452;2023-02-28T00:12:21;102911.22;;;0.78;100.00
54262;BME280;40174;52.364;6.452;2023-02-28T00:14:48;102911.22;;;0.78;100.00
54262;BME280;40174;52.364;6.452;2023-02-28T00:17:14;102906.03;;;0.78;100.00
54262;BME280;40174;52.364;6.452;2023-02-28T00:19:43;102911.22;;;0.81;100.00
54262;BME280;40174;52.364;6.452;2023-02-28T00:22:09;102909.47;;;0.83;100.00
54262;BME280;40174;52.364;6.452;2023-02-28T00:24:36;102905.13;;;0.82;100.00
54262;BME280;40174;52.364;6.452;2023-02-28T00:27:03;102906.00;;;0.85;100.00
54262;BME280;40174;52.364;6.452;2023-02-28T00:29:31;102899.06;;;0.83;100.00
54262;BME280;40174;52.364;6.452;2023-02-28T00:31:57;102911.19;;;0.86;100.00
54262;BME280;40174;52.364;6.452;2023-02-28T00:34:24;102917.25;;;0.88;100.00
54262;BME280;40174;52.364;6.452;2023-02-28T00:36:52;102903.38;;;0.86;100.00
54262;BME280;40174;52.364;6.452;2023-02-28T00:39:18;102912.06;;;0.88;100.00
54262;BME280;40174;52.364;6.452;2023-02-28T00:41:45;102908.56;;;0.89;100.00
54262;BME280;40174;52.364;6.452;2023-02-28T00:44:13;102905.97;;;0.89;100.00
54262;BME280;40174;52.364;6.452;2023-02-28T00:46:41;102910.31;;;0.90;100.00
54262;BME280;40174;52.364;6.452;2023-02-28T00:49:07;102905.97;;;0.91;100.00
54262;BME280;40174;52.364;6.452;2023-02-28T00:51:34;102912.03;;;0.91;100.00
54262;BME280;40174;52.364;6.452;2023-02-28T00:54:01;102905.06;;;0.92;100.00
54262;BME280;40174;52.364;6.452;2023-02-28T00:56:28;102905.97;;;0.92;100.00
54262;BME280;40174;52.364;6.452;2023-02-28T00:58:54;102900.75;;;0.92;100.00
54262;BME280;40174;52.364;6.452;2023-02-28T01:01:22;102892.94;;;0.92;100.00
54262;BME280;40174;52.364;6.452;2023-02-28T01:03:50;102911.13;;;0.94;100.00
54262;BME280;40174;52.364;6.452;2023-02-28T01:06:16;102905.94;;;0.94;100.00
54262;BME280;40174;52.364;6.452;2023-02-28T01:08:43;102893.81;;;0.94;100.00
54262;BME280;40174;52.364;6.452;2023-02-28T01:11:11;102895.50;;;0.94;100.00
54262;BME280;40174;52.364;6.452;2023-02-28T01:13:41;102892.91;;;0.94;100.00
54262;BME280;40174;52.364;6.452;2023-02-28T01:16:08;102897.25;;;0.95;100.00
54262;BME280;40174;52.364;6.452;2023-02-28T01:18:35;102897.22;;;0.96;100.00
54262;BME280;40174;52.364;6.452;2023-02-28T01:21:05;102895.50;;;0.97;100.00
54262;BME280;40174;52.364;6.452;2023-02-28T01:23:31;102895.50;;;0.97;100.00
54262;BME280;40174;52.364;6.452;2023-02-28T01:26:03;102891.16;;;0.96;100.00
54262;BME280;40174;52.364;6.452;2023-02-28T01:28:30;102892.91;;;0.95;100.00
54262;BME280;40174;52.364;6.452;2023-02-28T01:30:57;102904.19;;;0.99;100.00
54262;BME280;40174;52.364;6.452;2023-02-28T01:33:23;102885.94;;;0.96;100.00
54262;BME280;40174;52.364;6.452;2023-02-28T01:35:57;102892.00;;;0.98;100.00
54262;BME280;40174;52.364;6.452;2023-02-28T01:38:26;102892.00;;;0.99;100.00
54262;BME280;40174;52.364;6.452;2023-02-28T01:40:53;102889.41;;;0.98;100.00
54262;BME280;40174;52.364;6.452;2023-02-28T01:43:22;102885.94;;;0.99;100.00
54262;BME280;40174;52.364;6.452;2023-02-28T01:45:50;102890.25;;;0.98;100.00
54262;BME280;40174;52.364;6.452;2023-02-28T01:48:17;102891.16;;;0.99;100.00
54262;BME280;40174;52.364;6.452;2023-02-28T01:50:47;102891.13;;;1.02;100.00
54262;BME280;40174;52.364;6.452;2023-02-28T01:53:18;102891.13;;;1.02;100.00
54262;BME280;40174;52.364;6.452;2023-02-28T01:55:49;102886.78;;;1.02;100.00
54262;BME280;40174;52.364;6.452;2023-02-28T01:58:20;102889.38;;;1.04;100.00
54262;BME280;40174;52.364;6.452;2023-02-28T02:00:46;102882.41;;;1.03;100.00
54262;BME280;40174;52.364;6.452;2023-02-28T02:03:16;102884.16;;;1.02;100.00
54262;BME280;40174;52.364;6.452;2023-02-28T02:05:45;102879.81;;;1.03;100.00
54262;BME280;40174;52.364;6.452;2023-02-28T02:08:16;102880.69;;;1.03;100.00
54262;BME280;40174;52.364;6.452;2023-02-28T02:10:47;102877.22;;;1.03;100.00
54262;BME280;40174;52.364;6.452;2023-02-28T02:13:25;102882.41;;;1.04;100.00
54262;BME280;40174;52.364;6.452;2023-02-28T02:16:02;102886.78;;;1.02;100.00
54262;BME280;40174;52.364;6.452;2023-02-28T02:18:37;102889.38;;;1.02;100.00
54262;BME280;40174;52.364;6.452;2023-02-28T02:27:38;102896.28;;;1.05;100.00
54262;BME280;40174;52.364;6.452;2023-02-28T02:30:29;102898.03;;;1.06;100.00
54262;BME280;40174;52.364;6.452;2023-02-28T02:36:14;102904.06;;;1.10;100.00
54262;BME280;40174;52.364;6.452;2023-02-28T02:38:48;102904.97;;;1.10;100.00
54262;BME280;40174;52.364;6.452;2023-02-28T02:41:19;102904.06;;;1.13;100.00
54262;BME280;40174;52.364;6.452;2023-02-28T02:43:52;102894.53;;;1.10;100.00
54262;BME280;40174;52.364;6.452;2023-02-28T02:46:21;102884.97;;;1.11;100.00
54262;BME280;40174;52.364;6.452;2023-02-28T02:48:51;102893.66;;;1.10;100.00
54262;BME280;40174;52.364;6.452;2023-02-28T02:51:24;102894.53;;;1.10;100.00
54262;BME280;40174;52.364;6.452;2023-02-28T02:53:54;102890.19;;;1.11;100.00
54262;BME280;40174;52.364;6.452;2023-02-28T02:56:27;102893.66;;;1.11;100.00
54262;BME280;40174;52.364;6.452;2023-02-28T02:58:59;102900.59;;;1.12;100.00
54262;BME280;40174;52.364;6.452;2023-02-28T03:01:28;102904.06;;;1.13;100.00
54262;BME280;40174;52.364;6.452;2023-02-28T03:03:58;102905.78;;;1.14;100.00
54262;BME280;40174;52.364;6.452;2023-02-28T03:06:28;102909.25;;;1.14;100.00
54262;BME280;40174;52.364;6.452;2023-02-28T03:08:54;102914.47;;;1.14;100.00
54262;BME280;40174;52.364;6.452;2023-02-28T03:11:22;102912.72;;;1.16;100.00
54262;BME280;40174;52.364;6.452;2023-02-28T03:14:09;102897.06;;;1.16;100.00
54262;BME280;40174;52.364;6.452;2023-02-28T03:16:53;102907.50;;;1.18;100.00
54262;BME280;40174;52.364;6.452;2023-02-28T03:19:33;102900.56;;;1.17;100.00
54262;BME280;40174;52.364;6.452;2023-02-28T03:22:23;102899.69;;;1.16;100.00
54262;BME280;40174;52.364;6.452;2023-02-28T03:24:55;102896.22;;;1.16;100.00
54262;BME280;40174;52.364;6.452;2023-02-28T03:27:26;102898.81;;;1.16;100.00
54262;BME280;40174;52.364;6.452;2023-02-28T03:30:00;102897.06;;;1.16;100.00
54262;BME280;40174;52.364;6.452;2023-02-28T03:32:31;102886.66;;;1.16;100.00
54262;BME280;40174;52.364;6.452;2023-02-28T03:35:03;102894.47;;;1.18;100.00
54262;BME280;40174;52.364;6.452;2023-02-28T03:37:35;102900.53;;;1.18;100.00
54262;BME280;40174;52.364;6.452;2023-02-28T03:40:07;102896.22;;;1.19;100.00
54262;BME280;40174;52.364;6.452;2023-02-28T03:42:39;102895.31;;;1.18;100.00
54262;BME280;40174;52.364;6.452;2023-02-28T03:45:11;102894.47;;;1.18;100.00
54262;BME280;40174;52.364;6.452;2023-02-28T03:47:41;102899.69;;;1.16;100.00
54262;BME280;40174;52.364;6.452;2023-02-28T03:50:14;102895.38;;;1.15;100.00
54262;BME280;40174;52.364;6.452;2023-02-28T03:52:48;102890.16;;;1.14;100.00
54262;BME280;40174;52.364;6.452;2023-02-28T03:55:17;102896.22;;;1.14;100.00
54262;BME280;40174;52.364;6.452;2023-02-28T03:57:56;102890.16;;;1.14;100.00
54262;BME280;40174;52.364;6.452;2023-02-28T04:00:28;102891.91;;;1.15;100.00
54262;BME280;40174;52.364;6.452;2023-02-28T04:02:58;102884.09;;;1.12;100.00
54262;BME280;40174;52.364;6.452;2023-02-28T04:05:25;102869.34;;;1.08;100.00
54262;BME280;40174;52.364;6.452;2023-02-28T04:07:54;102873.72;;;1.09;100.00
54262;BME280;40174;52.364;6.452;2023-02-28T04:10:21;102881.53;;;1.10;100.00
54262;BME280;40174;52.364;6.452;2023-02-28T04:12:48;102872.81;;;1.11;100.00
54262;BME280;40174;52.364;6.452;2023-02-28T04:15:15;102877.16;;;1.08;100.00
54262;BME280;40174;52.364;6.452;2023-02-28T04:17:41;102885.88;;;1.07;100.00
54262;BME280;40174;52.364;6.452;2023-02-28T04:20:09;102872.00;;;1.06;100.00
54262;BME280;40174;52.364;6.452;2023-02-28T04:22:36;102881.53;;;1.09;100.00
54262;BME280;40174;52.364;6.452;2023-02-28T04:25:06;102878.97;;;1.06;100.00
54262;BME280;40174;52.364;6.452;2023-02-28T04:27:33;102888.47;;;1.05;100.00
54262;BME280;40174;52.364;6.452;2023-02-28T04:30:00;102881.56;;;1.02;100.00
54262;BME280;40174;52.364;6.452;2023-02-28T04:32:27;102879.84;;;1.01;100.00
54262;BME280;40174;52.364;6.452;2023-02-28T04:34:53;102879.00;;;0.99;100.00
54262;BME280;40174;52.364;6.452;2023-02-28T04:37:20;102870.28;;;1.00;100.00
54262;BME280;40174;52.364;6.452;2023-02-28T04:39:53;102885.91;;;1.02;100.00
54262;BME280;40174;52.364;6.452;2023-02-28T04:42:21;102877.25;;;1.01;100.00
54262;BME280;40174;52.364;6.452;2023-02-28T04:44:47;102878.09;;;1.00;100.00
54262;BME280;40174;52.364;6.452;2023-02-28T04:47:14;102875.50;;;1.00;100.00
54262;BME280;40174;52.364;6.452;2023-02-28T04:49:40;102893.72;;;1.02;100.00
54262;BME280;40174;52.364;6.452;2023-02-28T04:52:08;102898.09;;;1.01;100.00
54262;BME280;40174;52.364;6.452;2023-02-28T04:54:35;102896.34;;;1.03;100.00
54262;BME280;40174;52.364;6.452;2023-02-28T04:57:03;102892.00;;;1.01;100.00
54262;BME280;40174;52.364;6.452;2023-02-28T04:59:32;102891.16;;;0.99;100.00
54262;BME280;40174;52.364;6.452;2023-02-28T05:01:59;102885.94;;;0.97;100.00
54262;BME280;40174;52.364;6.452;2023-02-28T05:04:25;102876.38;;;0.98;100.00
54262;BME280;40174;52.364;6.452;2023-02-28T05:06:52;102860.75;;;0.98;100.00
54262;BME280;40174;52.364;6.452;2023-02-28T05:09:19;102876.38;;;0.99;100.00
54262;BME280;40174;52.364;6.452;2023-02-28T05:11:45;102880.75;;;0.99;100.00
54262;BME280;40174;52.364;6.452;2023-02-28T05:14:13;102884.19;;;1.01;100.00
54262;BME280;40174;52.364;6.452;2023-02-28T05:16:41;102884.16;;;1.02;100.00
54262;BME280;40174;52.364;6.452;2023-02-28T05:19:08;102874.63;;;1.00;100.00
54262;BME280;40174;52.364;6.452;2023-02-28T05:21:36;102872.94;;;0.97;100.00
54262;BME280;40174;52.364;6.452;2023-02-28T05:24:06;102870.31;;;0.96;100.00
54262;BME280;40174;52.364;6.452;2023-02-28T05:26:34;102878.13;;;0.96;100.00
54262;BME280;40174;52.364;6.452;2023-02-28T05:29:01;102884.19;;;0.98;100.00
54262;BME280;40174;52.364;6.452;2023-02-28T05:31:27;102884.19;;;0.99;100.00
54262;BME280;40174;52.364;6.452;2023-02-28T05:33:55;102877.25;;;1.00;100.00
54262;BME280;40174;52.364;6.452;2023-02-28T05:36:22;102875.53;;;0.99;100.00
54262;BME280;40174;52.364;6.452;2023-02-28T05:38:50;102891.13;;;1.00;100.00
54262;BME280;40174;52.364;6.452;2023-02-28T05:41:18;102885.94;;;0.99;100.00
54262;BME280;40174;52.364;6.452;2023-02-28T05:43:46;102881.59;;;0.96;100.00
54262;BME280;40174;52.364;6.452;2023-02-28T05:46:13;102885.94;;;0.96;100.00
54262;BME280;40174;52.364;6.452;2023-02-28T05:48:41;102886.84;;;0.95;100.00
54262;BME280;40174;52.364;6.452;2023-02-28T05:51:09;102889.44;;;0.95;100.00
54262;BME280;40174;52.364;6.452;2023-02-28T05:53:36;102890.31;;;0.94;100.00
54262;BME280;40174;52.364;6.452;2023-02-28T05:56:03;102893.81;;;0.93;100.00
54262;BME280;40174;52.364;6.452;2023-02-28T05:58:30;102890.31;;;0.95;100.00
54262;BME280;40174;52.364;6.452;2023-02-28T06:00:58;102890.31;;;0.95;100.00
54262;BME280;40174;52.364;6.452;2023-02-28T06:03:25;102886.84;;;0.92;100.00
54262;BME280;40174;52.364;6.452;2023-02-28T06:05:52;102884.25;;;0.92;100.00
54262;BME280;40174;52.364;6.452;2023-02-28T06:08:20;102896.41;;;0.93;100.00
54262;BME280;40174;52.364;6.452;2023-02-28T06:10:46;102908.56;;;0.92;100.00
54262;BME280;40174;52.364;6.452;2023-02-28T06:13:13;102892.06;;;0.92;100.00
54262;BME280;40174;52.364;6.452;2023-02-28T06:15:40;102899.00;;;0.90;100.00
54262;BME280;40174;52.364;6.452;2023-02-28T06:18:07;102899.91;;;0.89;100.00
54262;BME280;40174;52.364;6.452;2023-02-28T06:20:34;102912.03;;;0.90;100.00
54262;BME280;40174;52.364;6.452;2023-02-28T06:23:01;102911.19;;;0.86;100.00
54262;BME280;40174;52.364;6.452;2023-02-28T06:25:29;102919.00;;;0.86;100.00
54262;BME280;40174;52.364;6.452;2023-02-28T06:27:56;102908.59;;;0.85;100.00
54262;BME280;40174;52.364;6.452;2023-02-28T06:30:22;102912.09;;;0.83;100.00
54262;BME280;40174;52.364;6.452;2023-02-28T06:32:52;102912.09;;;0.82;100.00
54262;BME280;40174;52.364;6.452;2023-02-28T06:35:19;102912.09;;;0.82;100.00
54262;BME280;40174;52.364;6.452;2023-02-28T06:37:45;102924.25;;;0.83;100.00
54262;BME280;40174;52.364;6.452;2023-02-28T06:40:13;102922.50;;;0.83;100.00
54262;BME280;40174;52.364;6.452;2023-02-28T06:42:41;102925.97;;;0.84;100.00
54262;BME280;40174;52.364;6.452;2023-02-28T06:45:08;102927.69;;;0.85;100.00
54262;BME280;40174;52.364;6.452;2023-02-28T06:47:35;102937.22;;;0.89;100.00
54262;BME280;40174;52.364;6.452;2023-02-28T06:50:03;102941.56;;;0.89;100.00
54262;BME280;40174;52.364;6.452;2023-02-28T06:52:29;102938.94;;;0.89;100.00
54262;BME280;40174;52.364;6.452;2023-02-28T06:54:56;102940.69;;;0.88;100.00
54262;BME280;40174;52.364;6.452;2023-02-28T06:57:27;102943.28;;;0.90;100.00
54262;BME280;40174;52.364;6.452;2023-02-28T06:59:57;102945.03;;;0.91;100.00
54262;BME280;40174;52.364;6.452;2023-02-28T07:02:24;102955.44;;;0.91;100.00
54262;BME280;40174;52.364;6.452;2023-02-28T07:04:51;102940.66;;;0.91;100.00
54262;BME280;40174;52.364;6.452;2023-02-28T07:07:18;102941.53;;;0.92;100.00
54262;BME280;40174;52.364;6.452;2023-02-28T07:09:44;102945.00;;;0.94;100.00
54262;BME280;40174;52.364;6.452;2023-02-28T07:12:11;102951.94;;;0.93;100.00
54262;BME280;40174;52.364;6.452;2023-02-28T07:14:38;102953.69;;;0.94;100.00
54262;BME280;40174;52.364;6.452;2023-02-28T07:17:07;102960.63;;;0.94;100.00
54262;BME280;40174;52.364;6.452;2023-02-28T07:19:34;102964.09;;;0.93;100.00
54262;BME280;40174;52.364;6.452;2023-02-28T07:22:00;102963.22;;;0.95;100.00
54262;BME280;40174;52.364;6.452;2023-02-28T07:24:28;102966.69;;;0.96;100.00
54262;BME280;40174;52.364;6.452;2023-02-28T07:26:54;102957.13;;;0.96;100.00
54262;BME280;40174;52.364;6.452;2023-02-28T07:29:21;102961.47;;;0.97;100.00
54262;BME280;40174;52.364;6.452;2023-02-28T07:31:48;102971.88;;;0.97;100.00
54262;BME280;40174;52.364;6.452;2023-02-28T07:34:17;102967.53;;;0.98;100.00
54262;BME280;40174;52.364;6.452;2023-02-28T07:36:43;102964.06;;;0.99;100.00
54262;BME280;40174;52.364;6.452;2023-02-28T07:39:10;102974.47;;;1.00;100.00
54262;BME280;40174;52.364;6.452;2023-02-28T07:41:36;102971.00;;;1.01;100.00
54262;BME280;40174;52.364;6.452;2023-02-28T07:44:08;102980.53;;;1.04;100.00
54262;BME280;40174;52.364;6.452;2023-02-28T07:46:35;102980.50;;;1.07;100.00
54262;BME280;40174;52.364;6.452;2023-02-28T07:49:02;102980.50;;;1.10;100.00
54262;BME280;40174;52.364;6.452;2023-02-28T07:51:31;102974.41;;;1.13;100.00
54262;BME280;40174;52.364;6.452;2023-02-28T07:53:57;102981.28;;;1.18;100.00
54262;BME280;40174;52.364;6.452;2023-02-28T07:56:24;102977.78;;;1.22;100.00
54262;BME280;40174;52.364;6.452;2023-02-28T07:58:51;102978.66;;;1.23;100.00
54262;BME280;40174;52.364;6.452;2023-02-28T08:01:17;102982.13;;;1.28;100.00
54262;BME280;40174;52.364;6.452;2023-02-28T08:03:44;102974.25;;;1.33;100.00
54262;BME280;40174;52.364;6.452;2023-02-28T08:06:16;102982.94;;;1.35;100.00
54262;BME280;40174;52.364;6.452;2023-02-28T08:08:44;102986.41;;;1.34;100.00
54262;BME280;40174;52.364;6.452;2023-02-28T08:11:11;102982.94;;;1.35;100.00
54262;BME280;40174;52.364;6.452;2023-02-28T08:13:38;102987.22;;;1.39;100.00
54262;BME280;40174;52.364;6.452;2023-02-28T08:16:05;102985.47;;;1.42;100.00
54262;BME280;40174;52.364;6.452;2023-02-28T08:18:32;102982.81;;;1.47;100.00
54262;BME280;40174;52.364;6.452;2023-02-28T08:20:59;102994.94;;;1.56;100.00
54262;BME280;40174;52.364;6.452;2023-02-28T08:23:26;102992.28;;;1.60;100.00
54262;BME280;40174;52.364;6.452;2023-02-28T08:25:54;103003.53;;;1.69;100.00
54262;BME280;40174;52.364;6.452;2023-02-28T08:28:21;102987.75;;;1.79;93.88
54262;BME280;40174;52.364;6.452;2023-02-28T08:30:48;102997.28;;;1.85;91.70
54262;BME280;40174;52.364;6.452;2023-02-28T08:33:15;103002.50;;;1.86;86.90
54262;BME280;40174;52.364;6.452;2023-02-28T08:35:41;102998.13;;;1.89;83.92
54262;BME280;40174;52.364;6.452;2023-02-28T08:38:08;102989.41;;;1.91;82.78
54262;BME280;40174;52.364;6.452;2023-02-28T08:40:35;102995.47;;;1.93;84.08
54262;BME280;40174;52.364;6.452;2023-02-28T08:43:03;102995.44;;;1.96;81.79
54262;BME280;40174;52.364;6.452;2023-02-28T08:45:29;102998.00;;;2.01;83.30
54262;BME280;40174;52.364;6.452;2023-02-28T08:47:56;102997.94;;;2.05;81.78
54262;BME280;40174;52.364;6.452;2023-02-28T08:50:22;102989.16;;;2.14;79.25
54262;BME280;40174;52.364;6.452;2023-02-28T08:52:49;102987.34;;;2.22;78.68
54262;BME280;40174;52.364;6.452;2023-02-28T08:55:16;102995.97;;;2.27;76.27
54262;BME280;40174;52.364;6.452;2023-02-28T08:57:42;102993.38;;;2.27;75.79
54262;BME280;40174;52.364;6.452;2023-02-28T09:00:12;102991.59;;;2.31;74.73
54262;BME280;40174;52.364;6.452;2023-02-28T09:02:39;102992.47;;;2.32;73.68
54262;BME280;40174;52.364;6.452;2023-02-28T09:05:08;102998.47;;;2.38;67.52
54262;BME280;40174;52.364;6.452;2023-02-28T09:07:35;103001.94;;;2.37;70.90
54262;BME280;40174;52.364;6.452;2023-02-28T09:10:01;103014.09;;;2.43;68.42
54262;BME280;40174;52.364;6.452;2023-02-28T09:12:32;103007.09;;;2.45;67.45
54262;BME280;40174;52.364;6.452;2023-02-28T09:14:59;103014.09;;;2.44;68.81
54262;BME280;40174;52.364;6.452;2023-02-28T09:17:27;103007.00;;;2.56;67.17
54262;BME280;40174;52.364;6.452;2023-02-28T09:19:54;103009.44;;;2.66;68.36
54262;BME280;40174;52.364;6.452;2023-02-28T09:22:20;103009.44;;;2.69;70.35
54262;BME280;40174;52.364;6.452;2023-02-28T09:24:47;103005.91;;;2.74;67.33
54262;BME280;40174;52.364;6.452;2023-02-28T09:27:14;103004.94;;;2.81;66.28
54262;BME280;40174;52.364;6.452;2023-02-28T09:29:41;103003.88;;;2.92;65.71
54262;BME280;40174;52.364;6.452;2023-02-28T09:32:07;102995.19;;;2.92;67.92
54262;BME280;40174;52.364;6.452;2023-02-28T09:34:36;102997.66;;;3.03;65.22
54262;BME280;40174;52.364;6.452;2023-02-28T09:37:03;102990.56;;;3.11;64.68
54262;BME280;40174;52.364;6.452;2023-02-28T09:39:30;102998.25;;;3.22;63.77
54262;BME280;40174;52.364;6.452;2023-02-28T09:41:57;102996.50;;;3.22;65.84
54262;BME280;40174;52.364;6.452;2023-02-28T09:44:28;103001.72;;;3.22;63.94
54262;BME280;40174;52.364;6.452;2023-02-28T09:46:57;103001.63;;;3.30;61.65
54262;BME280;40174;52.364;6.452;2023-02-28T09:49:31;102999.78;;;3.35;62.91
54262;BME280;40174;52.364;6.452;2023-02-28T09:52:04;102998.00;;;3.39;62.80
54262;BME280;40174;52.364;6.452;2023-02-28T09:54:34;102989.94;;;3.51;61.04
54262;BME280;40174;52.364;6.452;2023-02-28T09:57:07;103000.31;;;3.57;60.53
54262;BME280;40174;52.364;6.452;2023-02-28T09:59:42;102994.00;;;3.69;61.07
54262;BME280;40174;52.364;6.452;2023-02-28T10:02:31;102992.94;;;3.81;60.69
54262;BME280;40174;52.364;6.452;2023-02-28T10:05:07;102996.03;;;4.03;60.32
54262;BME280;40174;52.364;6.452;2023-02-28T10:07:50;102997.38;;;4.24;58.12
54262;BME280;40174;52.364;6.452;2023-02-28T10:10:24;103002.59;;;4.25;59.24
54262;BME280;40174;52.364;6.452;2023-02-28T10:12:56;102992.13;;;4.25;58.01
54262;BME280;40174;52.364;6.452;2023-02-28T10:15:25;102995.50;;;4.30;58.48
54262;BME280;40174;52.364;6.452;2023-02-28T10:17:54;102992.72;;;4.40;59.00
54262;BME280;40174;52.364;6.452;2023-02-28T10:20:24;102994.25;;;4.50;57.21
54262;BME280;40174;52.364;6.452;2023-02-28T10:23:00;102983.03;;;4.45;56.04
54262;BME280;40174;52.364;6.452;2023-02-28T10:25:33;102986.28;;;4.56;56.30
54262;BME280;40174;52.364;6.452;2023-02-28T10:28:08;102986.06;;;4.67;56.75
54262;BME280;40174;52.364;6.452;2023-02-28T10:30:36;102991.72;;;4.87;55.04
54262;BME280;40174;52.364;6.452;2023-02-28T10:33:05;102989.88;;;4.92;55.90
54262;BME280;40174;52.364;6.452;2023-02-28T10:35:31;102986.94;;;5.06;56.88
54262;BME280;40174;52.364;6.452;2023-02-28T10:38:05;102984.25;;;5.09;57.46
54262;BME280;40174;52.364;6.452;2023-02-28T10:40:40;102991.81;;;5.21;56.08
54262;BME280;40174;52.364;6.452;2023-02-28T10:43:19;102993.72;;;5.15;53.30
54262;BME280;40174;52.364;6.452;2023-02-28T10:46:03;102991.81;;;5.21;55.34
54262;BME280;40174;52.364;6.452;2023-02-28T10:48:34;102994.91;;;5.39;53.76
54262;BME280;40174;52.364;6.452;2023-02-28T10:51:02;102991.16;;;5.49;52.33
54262;BME280;40174;52.364;6.452;2023-02-28T10:53:38;102999.41;;;5.70;53.85
54262;BME280;40174;52.364;6.452;2023-02-28T10:56:15;102995.59;;;5.83;54.01
54262;BME280;40174;52.364;6.452;2023-02-28T10:58:49;102983.94;;;5.95;54.57
54262;BME280;40174;52.364;6.452;2023-02-28T11:01:18;102987.81;;;6.13;54.31
54262;BME280;40174;52.364;6.452;2023-02-28T11:03:44;102990.19;;;6.22;55.33
54262;BME280;40174;52.364;6.452;2023-02-28T11:06:16;102988.28;;;6.27;51.19
54262;BME280;40174;52.364;6.452;2023-02-28T11:08:47;102986.09;;;6.43;55.14
54262;BME280;40174;52.364;6.452;2023-02-28T11:11:14;102982.28;;;6.55;52.21
54262;BME280;40174;52.364;6.452;2023-02-28T11:13:43;102985.44;;;6.66;50.84
54262;BME280;40174;52.364;6.452;2023-02-28T11:16:12;102978.97;;;6.78;51.88
54262;BME280;40174;52.364;6.452;2023-02-28T11:18:42;102982.28;;;6.83;52.70
54262;BME280;40174;52.364;6.452;2023-02-28T11:21:18;102976.63;;;6.97;51.07
54262;BME280;40174;52.364;6.452;2023-02-28T11:23:47;102966.84;;;7.02;50.00
54262;BME280;40174;52.364;6.452;2023-02-28T11:26:14;102966.06;;;6.98;50.68
54262;BME280;40174;52.364;6.452;2023-02-28T11:28:42;102965.66;;;7.11;50.73
54262;BME280;40174;52.364;6.452;2023-02-28T11:31:17;102965.13;;;7.27;50.65
54262;BME280;40174;52.364;6.452;2023-02-28T11:33:47;102969.84;;;7.44;49.63
54262;BME280;40174;52.364;6.452;2023-02-28T11:36:19;102972.75;;;7.62;49.72
54262;BME280;40174;52.364;6.452;2023-02-28T11:38:48;102971.72;;;7.67;50.57
54262;BME280;40174;52.364;6.452;2023-02-28T11:41:28;102962.06;;;7.66;49.01
54262;BME280;40174;52.364;6.452;2023-02-28T11:44:04;102957.38;;;7.76;49.45
54262;BME280;40174;52.364;6.452;2023-02-28T11:46:38;102961.63;;;7.80;48.30
54262;BME280;40174;52.364;6.452;2023-02-28T11:49:17;102954.41;;;7.85;46.27
54262;BME280;40174;52.364;6.452;2023-02-28T11:51:48;102960.66;;;7.83;46.73
54262;BME280;40174;52.364;6.452;2023-02-28T11:54:30;102957.16;;;8.07;48.43
54262;BME280;40174;52.364;6.452;2023-02-28T11:57:12;102956.88;;;8.15;49.21
54262;BME280;40174;52.364;6.452;2023-02-28T11:59:52;102951.47;;;8.18;47.26
54262;BME280;40174;52.364;6.452;2023-02-28T12:02:26;102951.22;;;8.26;46.48
54262;BME280;40174;52.364;6.452;2023-02-28T12:05:24;102945.94;;;8.26;47.61
54262;BME280;40174;52.364;6.452;2023-02-28T12:08:04;102948.28;;;8.33;47.20
54262;BME280;40174;52.364;6.452;2023-02-28T12:10:37;102949.69;;;8.44;46.75
54262;BME280;40174;52.364;6.452;2023-02-28T12:13:16;102946.53;;;8.58;46.97
54262;BME280;40174;52.364;6.452;2023-02-28T12:16:16;102947.13;;;8.66;45.85
54262;BME280;40174;52.364;6.452;2023-02-28T12:19:16;102937.19;;;8.94;47.51
54262;BME280;40174;52.364;6.452;2023-02-28T12:22:09;102946.06;;;9.14;45.35
54262;BME280;40174;52.364;6.452;2023-02-28T12:24:54;102930.84;;;9.21;45.50
54262;BME280;40174;52.364;6.452;2023-02-28T12:27:27;102930.56;;;9.28;43.72
54262;BME280;40174;52.364;6.452;2023-02-28T12:29:58;102926.72;;;9.35;45.16
54262;BME280;40174;52.364;6.452;2023-02-28T12:32:31;102929.63;;;9.50;44.38
54262;BME280;40174;52.364;6.452;2023-02-28T12:35:02;102927.84;;;9.50;43.63
54262;BME280;40174;52.364;6.452;2023-02-28T12:37:35;102926.56;;;9.61;43.89
54262;BME280;40174;52.364;6.452;2023-02-28T12:40:11;102917.22;;;9.72;43.71
54262;BME280;40174;52.364;6.452;2023-02-28T12:42:42;102913.00;;;9.68;42.72
54262;BME280;40174;52.364;6.452;2023-02-28T12:45:15;102913.94;;;9.88;43.52
54262;BME280;40174;52.364;6.452;2023-02-28T12:47:45;102914.72;;;9.90;41.89
54262;BME280;40174;52.364;6.452;2023-02-28T12:50:14;102908.31;;;9.95;42.47
54262;BME280;40174;52.364;6.452;2023-02-28T12:52:48;102913.44;;;9.98;41.73
54262;BME280;40174;52.364;6.452;2023-02-28T12:55:21;102906.06;;;10.07;41.04
54262;BME280;40174;52.364;6.452;2023-02-28T12:58:00;102906.16;;;10.04;40.44
54262;BME280;40174;52.364;6.452;2023-02-28T13:00:33;102893.59;;;10.09;41.59
54262;BME280;40174;52.364;6.452;2023-02-28T13:03:15;102887.78;;;10.21;42.23
54262;BME280;40174;52.364;6.452;2023-02-28T13:05:54;102894.53;;;10.08;40.32
54262;BME280;40174;52.364;6.452;2023-02-28T13:08:45;102897.59;;;10.17;40.58
54262;BME280;40174;52.364;6.452;2023-02-28T13:11:25;102880.47;;;10.26;40.68
54262;BME280;40174;52.364;6.452;2023-02-28T13:14:00;102872.53;;;10.26;40.77
54262;BME280;40174;52.364;6.452;2023-02-28T13:16:27;102883.03;;;10.29;40.38
54262;BME280;40174;52.364;6.452;2023-02-28T13:19:08;102875.34;;;10.23;39.42